sensor_id;sensor_type;location;lat;lon;timestamp;P1;durP1;ratioP1;P2;durP2;ratioP2
46266;SDS011;31998;48.798;15.066;2023-05-14T00:01:45;35.60;;;28.17;;
46266;SDS011;31998;48.798;15.066;2023-05-14T00:04:11;36.27;;;28.63;;
46266;SDS011;31998;48.798;15.066;2023-05-14T00:06:36;38.70;;;28.07;;
46266;SDS011;31998;48.798;15.066;2023-05-14T00:09:01;34.73;;;27.00;;
46266;SDS011;31998;48.798;15.066;2023-05-14T00:11:27;37.07;;;26.97;;
46266;SDS011;31998;48.798;15.066;2023-05-14T00:13:52;32.93;;;26.53;;
46266;SDS011;31998;48.798;15.066;2023-05-14T00:16:17;33.67;;;27.47;;
46266;SDS011;31998;48.798;15.066;2023-05-14T00:18:42;37.40;;;27.80;;
46266;SDS011;31998;48.798;15.066;2023-05-14T00:21:08;37.03;;;28.73;;
46266;SDS011;31998;48.798;15.066;2023-05-14T00:23:33;39.50;;;29.47;;
46266;SDS011;31998;48.798;15.066;2023-05-14T00:25:58;34.73;;;28.50;;
46266;SDS011;31998;48.798;15.066;2023-05-14T00:28:23;37.57;;;29.70;;
46266;SDS011;31998;48.798;15.066;2023-05-14T00:30:49;35.93;;;28.00;;
46266;SDS011;31998;48.798;15.066;2023-05-14T00:33:14;38.17;;;29.63;;
46266;SDS011;31998;48.798;15.066;2023-05-14T00:35:40;33.40;;;28.10;;
46266;SDS011;31998;48.798;15.066;2023-05-14T00:38:05;37.20;;;29.43;;
46266;SDS011;31998;48.798;15.066;2023-05-14T00:40:30;42.30;;;30.03;;
46266;SDS011;31998;48.798;15.066;2023-05-14T00:42:55;37.43;;;29.43;;
46266;SDS011;31998;48.798;15.066;2023-05-14T00:45:21;32.70;;;29.07;;
46266;SDS011;31998;48.798;15.066;2023-05-14T00:47:47;39.20;;;28.43;;
46266;SDS011;31998;48.798;15.066;2023-05-14T00:50:12;34.93;;;29.10;;
46266;SDS011;31998;48.798;15.066;2023-05-14T00:52:38;38.77;;;33.00;;
46266;SDS011;31998;48.798;15.066;2023-05-14T00:55:04;44.63;;;34.37;;
46266;SDS011;31998;48.798;15.066;2023-05-14T00:57:30;40.60;;;33.30;;
46266;SDS011;31998;48.798;15.066;2023-05-14T00:59:55;44.73;;;33.77;;
46266;SDS011;31998;48.798;15.066;2023-05-14T01:02:20;42.40;;;34.03;;
46266;SDS011;31998;48.798;15.066;2023-05-14T01:04:46;50.20;;;36.10;;
46266;SDS011;31998;48.798;15.066;2023-05-14T01:07:33;44.27;;;34.40;;
46266;SDS011;31998;48.798;15.066;2023-05-14T01:09:58;47.20;;;35.70;;
46266;SDS011;31998;48.798;15.066;2023-05-14T01:15:20;44.73;;;33.27;;
46266;SDS011;31998;48.798;15.066;2023-05-14T01:17:47;50.33;;;35.97;;
46266;SDS011;31998;48.798;15.066;2023-05-14T01:20:14;47.20;;;35.30;;
46266;SDS011;31998;48.798;15.066;2023-05-14T01:22:40;39.80;;;33.00;;
46266;SDS011;31998;48.798;15.066;2023-05-14T01:25:05;44.60;;;34.87;;
46266;SDS011;31998;48.798;15.066;2023-05-14T01:27:41;42.10;;;34.73;;
46266;SDS011;31998;48.798;15.066;2023-05-14T01:30:24;46.20;;;34.80;;
46266;SDS011;31998;48.798;15.066;2023-05-14T01:32:52;42.27;;;33.97;;
46266;SDS011;31998;48.798;15.066;2023-05-14T01:35:19;44.60;;;36.03;;
46266;SDS011;31998;48.798;15.066;2023-05-14T01:37:45;50.07;;;34.73;;
46266;SDS011;31998;48.798;15.066;2023-05-14T01:40:11;45.10;;;35.93;;
46266;SDS011;31998;48.798;15.066;2023-05-14T01:42:37;47.60;;;36.90;;
46266;SDS011;31998;48.798;15.066;2023-05-14T01:45:02;43.40;;;35.77;;
46266;SDS011;31998;48.798;15.066;2023-05-14T01:47:27;46.87;;;35.30;;
46266;SDS011;31998;48.798;15.066;2023-05-14T01:49:53;39.63;;;34.57;;
46266;SDS011;31998;48.798;15.066;2023-05-14T01:52:18;45.63;;;36.20;;
46266;SDS011;31998;48.798;15.066;2023-05-14T01:54:45;49.40;;;35.40;;
46266;SDS011;31998;48.798;15.066;2023-05-14T01:57:10;45.53;;;37.67;;
46266;SDS011;31998;48.798;15.066;2023-05-14T01:59:35;52.03;;;36.93;;
46266;SDS011;31998;48.798;15.066;2023-05-14T02:02:01;53.07;;;38.17;;
46266;SDS011;31998;48.798;15.066;2023-05-14T02:04:26;52.13;;;36.70;;
46266;SDS011;31998;48.798;15.066;2023-05-14T02:06:51;44.20;;;33.93;;
46266;SDS011;31998;48.798;15.066;2023-05-14T02:09:16;44.30;;;35.90;;
46266;SDS011;31998;48.798;15.066;2023-05-14T02:11:41;44.63;;;35.37;;
46266;SDS011;31998;48.798;15.066;2023-05-14T02:14:07;39.10;;;32.87;;
46266;SDS011;31998;48.798;15.066;2023-05-14T02:16:32;44.63;;;35.40;;
46266;SDS011;31998;48.798;15.066;2023-05-14T02:18:57;43.93;;;35.10;;
46266;SDS011;31998;48.798;15.066;2023-05-14T02:21:22;44.10;;;34.77;;
46266;SDS011;31998;48.798;15.066;2023-05-14T02:23:48;43.27;;;34.13;;
46266;SDS011;31998;48.798;15.066;2023-05-14T02:26:14;44.87;;;35.03;;
46266;SDS011;31998;48.798;15.066;2023-05-14T02:28:39;43.33;;;34.70;;
46266;SDS011;31998;48.798;15.066;2023-05-14T02:31:04;40.70;;;34.67;;
46266;SDS011;31998;48.798;15.066;2023-05-14T02:33:30;46.47;;;35.47;;
46266;SDS011;31998;48.798;15.066;2023-05-14T02:35:55;40.23;;;32.90;;
46266;SDS011;31998;48.798;15.066;2023-05-14T02:38:21;43.93;;;33.90;;
46266;SDS011;31998;48.798;15.066;2023-05-14T02:40:46;47.50;;;33.77;;
46266;SDS011;31998;48.798;15.066;2023-05-14T02:43:11;47.20;;;34.90;;
46266;SDS011;31998;48.798;15.066;2023-05-14T02:45:36;45.87;;;32.27;;
46266;SDS011;31998;48.798;15.066;2023-05-14T02:48:01;38.80;;;32.07;;
46266;SDS011;31998;48.798;15.066;2023-05-14T02:50:27;43.30;;;32.50;;
46266;SDS011;31998;48.798;15.066;2023-05-14T02:52:52;39.23;;;31.97;;
46266;SDS011;31998;48.798;15.066;2023-05-14T02:55:17;39.83;;;29.60;;
46266;SDS011;31998;48.798;15.066;2023-05-14T02:57:42;34.87;;;28.50;;
46266;SDS011;31998;48.798;15.066;2023-05-14T03:00:08;34.47;;;28.67;;
46266;SDS011;31998;48.798;15.066;2023-05-14T03:02:33;39.43;;;30.23;;
46266;SDS011;31998;48.798;15.066;2023-05-14T03:04:59;33.20;;;26.43;;
46266;SDS011;31998;48.798;15.066;2023-05-14T03:07:25;33.47;;;27.27;;
46266;SDS011;31998;48.798;15.066;2023-05-14T03:09:50;30.00;;;26.80;;
46266;SDS011;31998;48.798;15.066;2023-05-14T03:12:15;30.13;;;26.83;;
46266;SDS011;31998;48.798;15.066;2023-05-14T03:14:40;37.97;;;28.47;;
46266;SDS011;31998;48.798;15.066;2023-05-14T03:17:06;35.60;;;27.90;;
46266;SDS011;31998;48.798;15.066;2023-05-14T03:19:31;37.63;;;26.33;;
46266;SDS011;31998;48.798;15.066;2023-05-14T03:21:56;31.93;;;26.20;;
46266;SDS011;31998;48.798;15.066;2023-05-14T03:24:21;30.17;;;26.17;;
46266;SDS011;31998;48.798;15.066;2023-05-14T03:26:46;29.97;;;26.00;;
46266;SDS011;31998;48.798;15.066;2023-05-14T03:29:12;28.80;;;25.67;;
46266;SDS011;31998;48.798;15.066;2023-05-14T03:31:37;32.97;;;26.07;;
46266;SDS011;31998;48.798;15.066;2023-05-14T03:34:02;29.57;;;26.40;;
46266;SDS011;31998;48.798;15.066;2023-05-14T03:36:27;35.27;;;26.70;;
46266;SDS011;31998;48.798;15.066;2023-05-14T03:38:53;32.50;;;27.93;;
46266;SDS011;31998;48.798;15.066;2023-05-14T03:41:18;35.83;;;27.93;;
46266;SDS011;31998;48.798;15.066;2023-05-14T03:43:44;33.10;;;26.60;;
46266;SDS011;31998;48.798;15.066;2023-05-14T03:46:09;30.37;;;26.23;;
46266;SDS011;31998;48.798;15.066;2023-05-14T03:48:34;35.60;;;27.23;;
46266;SDS011;31998;48.798;15.066;2023-05-14T03:51:00;31.83;;;26.43;;
46266;SDS011;31998;48.798;15.066;2023-05-14T03:53:25;30.13;;;25.90;;
46266;SDS011;31998;48.798;15.066;2023-05-14T03:55:50;39.90;;;27.50;;
46266;SDS011;31998;48.798;15.066;2023-05-14T03:58:15;36.27;;;27.87;;
46266;SDS011;31998;48.798;15.066;2023-05-14T04:00:41;31.80;;;27.33;;
46266;SDS011;31998;48.798;15.066;2023-05-14T04:03:07;37.60;;;28.80;;
46266;SDS011;31998;48.798;15.066;2023-05-14T04:05:32;45.97;;;27.50;;
46266;SDS011;31998;48.798;15.066;2023-05-14T04:07:57;30.63;;;26.67;;
46266;SDS011;31998;48.798;15.066;2023-05-14T04:10:22;38.90;;;29.33;;
46266;SDS011;31998;48.798;15.066;2023-05-14T04:12:48;34.73;;;28.80;;
46266;SDS011;31998;48.798;15.066;2023-05-14T04:15:13;38.17;;;30.20;;
46266;SDS011;31998;48.798;15.066;2023-05-14T04:17:38;38.93;;;29.27;;
46266;SDS011;31998;48.798;15.066;2023-05-14T04:20:04;41.10;;;30.70;;
46266;SDS011;31998;48.798;15.066;2023-05-14T04:22:29;32.87;;;29.27;;
46266;SDS011;31998;48.798;15.066;2023-05-14T04:24:54;38.33;;;27.40;;
46266;SDS011;31998;48.798;15.066;2023-05-14T04:27:20;33.90;;;28.07;;
46266;SDS011;31998;48.798;15.066;2023-05-14T04:29:45;33.67;;;29.50;;
46266;SDS011;31998;48.798;15.066;2023-05-14T04:32:11;38.13;;;30.00;;
46266;SDS011;31998;48.798;15.066;2023-05-14T04:34:36;38.93;;;30.37;;
46266;SDS011;31998;48.798;15.066;2023-05-14T04:37:01;38.43;;;29.23;;
46266;SDS011;31998;48.798;15.066;2023-05-14T04:39:27;31.93;;;27.83;;
46266;SDS011;31998;48.798;15.066;2023-05-14T04:41:53;33.80;;;28.90;;
46266;SDS011;31998;48.798;15.066;2023-05-14T04:44:18;32.30;;;28.77;;
46266;SDS011;31998;48.798;15.066;2023-05-14T04:46:43;33.13;;;29.50;;
46266;SDS011;31998;48.798;15.066;2023-05-14T04:49:08;33.97;;;28.17;;
46266;SDS011;31998;48.798;15.066;2023-05-14T04:51:33;37.53;;;29.23;;
46266;SDS011;31998;48.798;15.066;2023-05-14T04:53:59;35.20;;;27.87;;
46266;SDS011;31998;48.798;15.066;2023-05-14T04:56:24;31.10;;;27.83;;
46266;SDS011;31998;48.798;15.066;2023-05-14T04:58:49;30.50;;;26.63;;
46266;SDS011;31998;48.798;15.066;2023-05-14T05:01:15;29.97;;;26.70;;
46266;SDS011;31998;48.798;15.066;2023-05-14T05:03:40;30.90;;;27.60;;
46266;SDS011;31998;48.798;15.066;2023-05-14T05:06:05;29.33;;;26.23;;
46266;SDS011;31998;48.798;15.066;2023-05-14T05:08:30;32.10;;;28.63;;
46266;SDS011;31998;48.798;15.066;2023-05-14T05:10:56;31.43;;;28.23;;
46266;SDS011;31998;48.798;15.066;2023-05-14T05:13:21;30.47;;;27.13;;
46266;SDS011;31998;48.798;15.066;2023-05-14T05:15:46;32.83;;;28.90;;
46266;SDS011;31998;48.798;15.066;2023-05-14T05:18:11;31.33;;;27.93;;
46266;SDS011;31998;48.798;15.066;2023-05-14T05:20:37;34.53;;;29.90;;
46266;SDS011;31998;48.798;15.066;2023-05-14T05:23:02;34.43;;;29.67;;
46266;SDS011;31998;48.798;15.066;2023-05-14T05:25:27;35.43;;;30.37;;
46266;SDS011;31998;48.798;15.066;2023-05-14T05:27:52;40.00;;;31.60;;
46266;SDS011;31998;48.798;15.066;2023-05-14T05:30:18;38.30;;;29.33;;
46266;SDS011;31998;48.798;15.066;2023-05-14T05:32:43;35.03;;;31.27;;
46266;SDS011;31998;48.798;15.066;2023-05-14T05:35:08;34.57;;;28.53;;
46266;SDS011;31998;48.798;15.066;2023-05-14T05:37:34;34.87;;;30.90;;
46266;SDS011;31998;48.798;15.066;2023-05-14T05:39:59;36.87;;;30.40;;
46266;SDS011;31998;48.798;15.066;2023-05-14T05:42:24;43.80;;;31.00;;
46266;SDS011;31998;48.798;15.066;2023-05-14T05:44:50;35.83;;;30.40;;
46266;SDS011;31998;48.798;15.066;2023-05-14T05:47:15;34.30;;;30.53;;
46266;SDS011;31998;48.798;15.066;2023-05-14T05:49:41;37.33;;;29.43;;
46266;SDS011;31998;48.798;15.066;2023-05-14T05:52:06;30.90;;;27.53;;
46266;SDS011;31998;48.798;15.066;2023-05-14T05:54:31;33.10;;;27.00;;
46266;SDS011;31998;48.798;15.066;2023-05-14T05:56:57;32.57;;;26.77;;
46266;SDS011;31998;48.798;15.066;2023-05-14T05:59:23;27.97;;;25.20;;
46266;SDS011;31998;48.798;15.066;2023-05-14T06:01:48;36.20;;;26.50;;
46266;SDS011;31998;48.798;15.066;2023-05-14T06:04:13;29.40;;;26.03;;
46266;SDS011;31998;48.798;15.066;2023-05-14T06:06:38;30.03;;;26.80;;
46266;SDS011;31998;48.798;15.066;2023-05-14T06:09:03;29.83;;;25.90;;
46266;SDS011;31998;48.798;15.066;2023-05-14T06:11:30;30.47;;;25.90;;
46266;SDS011;31998;48.798;15.066;2023-05-14T06:13:55;26.00;;;23.37;;
46266;SDS011;31998;48.798;15.066;2023-05-14T06:16:21;27.53;;;23.33;;
46266;SDS011;31998;48.798;15.066;2023-05-14T06:18:46;29.80;;;22.57;;
46266;SDS011;31998;48.798;15.066;2023-05-14T06:21:11;25.77;;;23.17;;
46266;SDS011;31998;48.798;15.066;2023-05-14T06:23:37;23.87;;;21.67;;
46266;SDS011;31998;48.798;15.066;2023-05-14T06:26:02;23.87;;;21.37;;
46266;SDS011;31998;48.798;15.066;2023-05-14T06:28:27;24.33;;;22.03;;
46266;SDS011;31998;48.798;15.066;2023-05-14T06:30:53;25.20;;;22.70;;
46266;SDS011;31998;48.798;15.066;2023-05-14T06:33:19;24.00;;;21.17;;
46266;SDS011;31998;48.798;15.066;2023-05-14T06:35:47;25.87;;;23.07;;
46266;SDS011;31998;48.798;15.066;2023-05-14T06:38:12;22.70;;;20.67;;
46266;SDS011;31998;48.798;15.066;2023-05-14T06:40:37;25.10;;;22.50;;
46266;SDS011;31998;48.798;15.066;2023-05-14T06:43:03;25.70;;;23.10;;
46266;SDS011;31998;48.798;15.066;2023-05-14T06:45:30;23.00;;;20.50;;
46266;SDS011;31998;48.798;15.066;2023-05-14T06:47:55;24.60;;;22.20;;
46266;SDS011;31998;48.798;15.066;2023-05-14T06:50:21;24.00;;;21.60;;
46266;SDS011;31998;48.798;15.066;2023-05-14T06:52:46;22.97;;;20.77;;
46266;SDS011;31998;48.798;15.066;2023-05-14T06:55:12;21.17;;;19.00;;
46266;SDS011;31998;48.798;15.066;2023-05-14T06:57:37;21.77;;;19.53;;
46266;SDS011;31998;48.798;15.066;2023-05-14T07:00:02;23.57;;;19.90;;
46266;SDS011;31998;48.798;15.066;2023-05-14T07:02:28;26.10;;;20.63;;
46266;SDS011;31998;48.798;15.066;2023-05-14T07:04:53;25.00;;;21.87;;
46266;SDS011;31998;48.798;15.066;2023-05-14T07:07:18;23.20;;;20.70;;
46266;SDS011;31998;48.798;15.066;2023-05-14T07:09:45;20.87;;;18.80;;
46266;SDS011;31998;48.798;15.066;2023-05-14T07:12:10;20.50;;;18.37;;
46266;SDS011;31998;48.798;15.066;2023-05-14T07:14:35;18.90;;;16.97;;
46266;SDS011;31998;48.798;15.066;2023-05-14T07:17:00;20.60;;;18.40;;
46266;SDS011;31998;48.798;15.066;2023-05-14T07:19:26;25.53;;;17.30;;
46266;SDS011;31998;48.798;15.066;2023-05-14T07:21:52;25.40;;;16.77;;
46266;SDS011;31998;48.798;15.066;2023-05-14T07:24:18;18.53;;;16.80;;
46266;SDS011;31998;48.798;15.066;2023-05-14T07:26:43;18.87;;;16.17;;
46266;SDS011;31998;48.798;15.066;2023-05-14T07:29:08;17.27;;;15.63;;
46266;SDS011;31998;48.798;15.066;2023-05-14T07:31:33;17.73;;;16.13;;
46266;SDS011;31998;48.798;15.066;2023-05-14T07:33:58;17.03;;;15.20;;
46266;SDS011;31998;48.798;15.066;2023-05-14T07:36:24;16.37;;;14.77;;
46266;SDS011;31998;48.798;15.066;2023-05-14T07:38:49;16.73;;;15.27;;
46266;SDS011;31998;48.798;15.066;2023-05-14T07:41:14;15.77;;;14.17;;
46266;SDS011;31998;48.798;15.066;2023-05-14T07:43:39;16.63;;;13.03;;
46266;SDS011;31998;48.798;15.066;2023-05-14T07:46:05;14.87;;;13.37;;
46266;SDS011;31998;48.798;15.066;2023-05-14T07:48:30;14.53;;;13.20;;
46266;SDS011;31998;48.798;15.066;2023-05-14T07:50:55;14.63;;;13.23;;
46266;SDS011;31998;48.798;15.066;2023-05-14T07:53:21;14.87;;;13.40;;
46266;SDS011;31998;48.798;15.066;2023-05-14T07:55:47;19.60;;;13.60;;
46266;SDS011;31998;48.798;15.066;2023-05-14T07:58:12;18.80;;;11.90;;
46266;SDS011;31998;48.798;15.066;2023-05-14T08:00:37;13.60;;;12.43;;
46266;SDS011;31998;48.798;15.066;2023-05-14T08:03:03;12.07;;;10.97;;
46266;SDS011;31998;48.798;15.066;2023-05-14T08:05:28;12.20;;;11.20;;
46266;SDS011;31998;48.798;15.066;2023-05-14T08:07:54;11.87;;;10.80;;
46266;SDS011;31998;48.798;15.066;2023-05-14T08:10:19;12.20;;;11.10;;
46266;SDS011;31998;48.798;15.066;2023-05-14T08:12:44;11.70;;;10.60;;
46266;SDS011;31998;48.798;15.066;2023-05-14T08:15:09;17.13;;;11.97;;
46266;SDS011;31998;48.798;15.066;2023-05-14T08:17:35;14.20;;;11.57;;
46266;SDS011;31998;48.798;15.066;2023-05-14T08:20:00;12.97;;;11.83;;
46266;SDS011;31998;48.798;15.066;2023-05-14T08:22:26;14.30;;;11.87;;
46266;SDS011;31998;48.798;15.066;2023-05-14T08:24:51;20.40;;;11.30;;
46266;SDS011;31998;48.798;15.066;2023-05-14T08:27:16;13.70;;;12.40;;
46266;SDS011;31998;48.798;15.066;2023-05-14T08:29:41;13.20;;;12.20;;
46266;SDS011;31998;48.798;15.066;2023-05-14T08:32:07;12.87;;;11.70;;
46266;SDS011;31998;48.798;15.066;2023-05-14T08:34:32;12.77;;;11.67;;
46266;SDS011;31998;48.798;15.066;2023-05-14T08:36:58;12.53;;;11.03;;
46266;SDS011;31998;48.798;15.066;2023-05-14T08:39:23;12.47;;;11.37;;
46266;SDS011;31998;48.798;15.066;2023-05-14T08:41:48;10.63;;;9.83;;
46266;SDS011;31998;48.798;15.066;2023-05-14T08:44:17;12.47;;;11.40;;
46266;SDS011;31998;48.798;15.066;2023-05-14T08:46:43;12.73;;;10.43;;
46266;SDS011;31998;48.798;15.066;2023-05-14T08:49:27;10.83;;;10.00;;
46266;SDS011;31998;48.798;15.066;2023-05-14T08:51:56;9.97;;;9.10;;
46266;SDS011;31998;48.798;15.066;2023-05-14T08:54:22;9.93;;;9.17;;
46266;SDS011;31998;48.798;15.066;2023-05-14T08:56:48;12.20;;;9.87;;
46266;SDS011;31998;48.798;15.066;2023-05-14T08:59:15;10.07;;;9.27;;
46266;SDS011;31998;48.798;15.066;2023-05-14T09:01:42;10.40;;;9.53;;
46266;SDS011;31998;48.798;15.066;2023-05-14T09:04:10;9.97;;;9.20;;
46266;SDS011;31998;48.798;15.066;2023-05-14T09:06:35;10.20;;;9.40;;
46266;SDS011;31998;48.798;15.066;2023-05-14T09:09:04;9.80;;;9.00;;
46266;SDS011;31998;48.798;15.066;2023-05-14T09:11:29;10.20;;;9.40;;
46266;SDS011;31998;48.798;15.066;2023-05-14T09:13:55;13.30;;;9.63;;
46266;SDS011;31998;48.798;15.066;2023-05-14T09:16:20;10.60;;;9.60;;
46266;SDS011;31998;48.798;15.066;2023-05-14T09:18:46;9.60;;;8.90;;
46266;SDS011;31998;48.798;15.066;2023-05-14T09:21:14;9.53;;;8.90;;
46266;SDS011;31998;48.798;15.066;2023-05-14T09:23:43;9.60;;;9.00;;
46266;SDS011;31998;48.798;15.066;2023-05-14T09:26:09;10.20;;;9.33;;
46266;SDS011;31998;48.798;15.066;2023-05-14T09:28:34;35.27;;;8.67;;
46266;SDS011;31998;48.798;15.066;2023-05-14T09:31:01;8.00;;;7.50;;
46266;SDS011;31998;48.798;15.066;2023-05-14T09:33:26;6.53;;;6.13;;
46266;SDS011;31998;48.798;15.066;2023-05-14T09:35:58;10.30;;;6.20;;
46266;SDS011;31998;48.798;15.066;2023-05-14T09:38:27;6.67;;;6.17;;
46266;SDS011;31998;48.798;15.066;2023-05-14T09:40:53;7.10;;;6.50;;
46266;SDS011;31998;48.798;15.066;2023-05-14T09:43:18;7.47;;;6.97;;
46266;SDS011;31998;48.798;15.066;2023-05-14T09:45:43;6.73;;;6.20;;
46266;SDS011;31998;48.798;15.066;2023-05-14T09:48:09;11.13;;;5.80;;
46266;SDS011;31998;48.798;15.066;2023-05-14T09:50:40;7.13;;;6.73;;
46266;SDS011;31998;48.798;15.066;2023-05-14T09:53:05;6.30;;;6.00;;
46266;SDS011;31998;48.798;15.066;2023-05-14T09:55:31;6.37;;;5.77;;
46266;SDS011;31998;48.798;15.066;2023-05-14T09:57:56;7.43;;;6.03;;
46266;SDS011;31998;48.798;15.066;2023-05-14T10:00:22;6.50;;;6.00;;
46266;SDS011;31998;48.798;15.066;2023-05-14T10:02:47;6.40;;;5.90;;
46266;SDS011;31998;48.798;15.066;2023-05-14T10:05:13;5.67;;;5.43;;
46266;SDS011;31998;48.798;15.066;2023-05-14T10:07:43;5.53;;;5.20;;
46266;SDS011;31998;48.798;15.066;2023-05-14T10:10:12;5.40;;;5.10;;
46266;SDS011;31998;48.798;15.066;2023-05-14T10:12:39;5.60;;;5.30;;
46266;SDS011;31998;48.798;15.066;2023-05-14T10:15:24;6.20;;;5.90;;
46266;SDS011;31998;48.798;15.066;2023-05-14T10:17:54;6.90;;;6.30;;
46266;SDS011;31998;48.798;15.066;2023-05-14T10:20:19;7.47;;;7.03;;
46266;SDS011;31998;48.798;15.066;2023-05-14T10:22:46;7.30;;;6.90;;
46266;SDS011;31998;48.798;15.066;2023-05-14T10:25:12;6.50;;;6.10;;
46266;SDS011;31998;48.798;15.066;2023-05-14T10:27:37;6.27;;;5.90;;
46266;SDS011;31998;48.798;15.066;2023-05-14T10:30:04;7.23;;;6.70;;
46266;SDS011;31998;48.798;15.066;2023-05-14T10:32:30;7.53;;;7.10;;
46266;SDS011;31998;48.798;15.066;2023-05-14T10:34:57;7.07;;;6.57;;
46266;SDS011;31998;48.798;15.066;2023-05-14T10:37:23;9.00;;;6.40;;
46266;SDS011;31998;48.798;15.066;2023-05-14T10:44:47;7.60;;;7.10;;
46266;SDS011;31998;48.798;15.066;2023-05-14T10:47:13;6.40;;;6.10;;
46266;SDS011;31998;48.798;15.066;2023-05-14T10:49:39;6.83;;;6.43;;
46266;SDS011;31998;48.798;15.066;2023-05-14T10:52:07;7.93;;;7.53;;
46266;SDS011;31998;48.798;15.066;2023-05-14T10:54:33;9.23;;;8.53;;
46266;SDS011;31998;48.798;15.066;2023-05-14T10:56:59;7.30;;;6.90;;
46266;SDS011;31998;48.798;15.066;2023-05-14T10:59:26;8.10;;;7.30;;
46266;SDS011;31998;48.798;15.066;2023-05-14T11:01:51;9.13;;;8.53;;
46266;SDS011;31998;48.798;15.066;2023-05-14T11:04:17;7.33;;;6.83;;
46266;SDS011;31998;48.798;15.066;2023-05-14T11:06:43;7.83;;;7.33;;
46266;SDS011;31998;48.798;15.066;2023-05-14T11:09:08;7.50;;;7.00;;
46266;SDS011;31998;48.798;15.066;2023-05-14T11:11:34;6.60;;;6.30;;
46266;SDS011;31998;48.798;15.066;2023-05-14T11:14:00;6.00;;;5.80;;
46266;SDS011;31998;48.798;15.066;2023-05-14T11:16:26;6.70;;;6.40;;
46266;SDS011;31998;48.798;15.066;2023-05-14T11:19:01;7.07;;;6.67;;
46266;SDS011;31998;48.798;15.066;2023-05-14T11:21:27;7.63;;;7.03;;
46266;SDS011;31998;48.798;15.066;2023-05-14T11:23:53;7.73;;;7.13;;
46266;SDS011;31998;48.798;15.066;2023-05-14T11:26:18;6.20;;;5.90;;
46266;SDS011;31998;48.798;15.066;2023-05-14T11:28:43;9.07;;;6.97;;
46266;SDS011;31998;48.798;15.066;2023-05-14T11:31:09;6.13;;;5.83;;
46266;SDS011;31998;48.798;15.066;2023-05-14T11:33:34;6.40;;;6.00;;
46266;SDS011;31998;48.798;15.066;2023-05-14T11:36:00;6.70;;;6.20;;
46266;SDS011;31998;48.798;15.066;2023-05-14T11:38:25;7.23;;;6.57;;
46266;SDS011;31998;48.798;15.066;2023-05-14T11:40:51;6.40;;;6.10;;
46266;SDS011;31998;48.798;15.066;2023-05-14T11:43:17;6.63;;;6.23;;
46266;SDS011;31998;48.798;15.066;2023-05-14T11:45:42;7.23;;;6.73;;
46266;SDS011;31998;48.798;15.066;2023-05-14T11:48:11;6.37;;;5.97;;
46266;SDS011;31998;48.798;15.066;2023-05-14T11:50:38;11.60;;;7.03;;
46266;SDS011;31998;48.798;15.066;2023-05-14T11:53:04;7.53;;;7.13;;
46266;SDS011;31998;48.798;15.066;2023-05-14T11:55:29;8.37;;;7.70;;
46266;SDS011;31998;48.798;15.066;2023-05-14T11:57:55;8.43;;;7.93;;
46266;SDS011;31998;48.798;15.066;2023-05-14T12:00:20;7.70;;;7.27;;
46266;SDS011;31998;48.798;15.066;2023-05-14T12:02:47;7.10;;;6.80;;
46266;SDS011;31998;48.798;15.066;2023-05-14T12:05:13;8.43;;;7.93;;
46266;SDS011;31998;48.798;15.066;2023-05-14T12:07:38;7.50;;;7.10;;
46266;SDS011;31998;48.798;15.066;2023-05-14T12:10:04;6.30;;;6.00;;
46266;SDS011;31998;48.798;15.066;2023-05-14T12:12:33;8.40;;;7.90;;
46266;SDS011;31998;48.798;15.066;2023-05-14T12:14:58;11.07;;;7.57;;
46266;SDS011;31998;48.798;15.066;2023-05-14T12:17:27;7.33;;;6.93;;
46266;SDS011;31998;48.798;15.066;2023-05-14T12:19:52;7.07;;;6.77;;
46266;SDS011;31998;48.798;15.066;2023-05-14T12:22:18;8.40;;;7.90;;
46266;SDS011;31998;48.798;15.066;2023-05-14T12:24:54;8.93;;;8.43;;
46266;SDS011;31998;48.798;15.066;2023-05-14T12:27:20;9.23;;;8.60;;
46266;SDS011;31998;48.798;15.066;2023-05-14T12:29:46;9.10;;;8.30;;
46266;SDS011;31998;48.798;15.066;2023-05-14T12:32:11;7.03;;;6.73;;
46266;SDS011;31998;48.798;15.066;2023-05-14T12:34:36;6.40;;;6.10;;
46266;SDS011;31998;48.798;15.066;2023-05-14T12:37:02;6.70;;;6.30;;
46266;SDS011;31998;48.798;15.066;2023-05-14T12:39:29;5.50;;;5.20;;
46266;SDS011;31998;48.798;15.066;2023-05-14T12:41:54;5.00;;;4.80;;
46266;SDS011;31998;48.798;15.066;2023-05-14T12:44:20;6.00;;;5.70;;
46266;SDS011;31998;48.798;15.066;2023-05-14T12:46:46;6.03;;;5.70;;
46266;SDS011;31998;48.798;15.066;2023-05-14T12:49:11;6.00;;;5.70;;
46266;SDS011;31998;48.798;15.066;2023-05-14T12:51:36;6.87;;;6.47;;
46266;SDS011;31998;48.798;15.066;2023-05-14T12:54:02;6.70;;;6.27;;
46266;SDS011;31998;48.798;15.066;2023-05-14T12:56:27;7.13;;;6.70;;
46266;SDS011;31998;48.798;15.066;2023-05-14T12:58:54;6.90;;;6.37;;
46266;SDS011;31998;48.798;15.066;2023-05-14T13:01:20;5.90;;;5.57;;
46266;SDS011;31998;48.798;15.066;2023-05-14T13:03:45;5.37;;;5.07;;
46266;SDS011;31998;48.798;15.066;2023-05-14T13:06:10;5.77;;;5.50;;
46266;SDS011;31998;48.798;15.066;2023-05-14T13:08:36;5.37;;;5.17;;
46266;SDS011;31998;48.798;15.066;2023-05-14T13:11:01;6.13;;;5.73;;
46266;SDS011;31998;48.798;15.066;2023-05-14T13:13:26;5.73;;;5.43;;
46266;SDS011;31998;48.798;15.066;2023-05-14T13:15:51;5.43;;;5.13;;
46266;SDS011;31998;48.798;15.066;2023-05-14T13:18:17;5.27;;;4.87;;
46266;SDS011;31998;48.798;15.066;2023-05-14T13:20:43;5.90;;;5.50;;
46266;SDS011;31998;48.798;15.066;2023-05-14T13:23:08;5.30;;;5.10;;
46266;SDS011;31998;48.798;15.066;2023-05-14T13:25:34;5.17;;;4.97;;
46266;SDS011;31998;48.798;15.066;2023-05-14T13:27:59;5.80;;;5.47;;
46266;SDS011;31998;48.798;15.066;2023-05-14T13:30:24;4.87;;;4.47;;
46266;SDS011;31998;48.798;15.066;2023-05-14T13:32:50;5.27;;;5.03;;
46266;SDS011;31998;48.798;15.066;2023-05-14T13:35:15;6.30;;;4.93;;
46266;SDS011;31998;48.798;15.066;2023-05-14T13:37:42;5.47;;;5.13;;
46266;SDS011;31998;48.798;15.066;2023-05-14T13:40:07;5.33;;;4.93;;
46266;SDS011;31998;48.798;15.066;2023-05-14T13:42:33;5.40;;;5.00;;
46266;SDS011;31998;48.798;15.066;2023-05-14T13:44:58;4.53;;;4.37;;
46266;SDS011;31998;48.798;15.066;2023-05-14T13:47:24;7.83;;;5.43;;
46266;SDS011;31998;48.798;15.066;2023-05-14T13:49:49;5.20;;;5.00;;
46266;SDS011;31998;48.798;15.066;2023-05-14T13:52:14;4.77;;;4.57;;
46266;SDS011;31998;48.798;15.066;2023-05-14T13:54:40;4.87;;;4.73;;
46266;SDS011;31998;48.798;15.066;2023-05-14T13:57:05;5.57;;;4.73;;
46266;SDS011;31998;48.798;15.066;2023-05-14T13:59:30;4.80;;;4.60;;
46266;SDS011;31998;48.798;15.066;2023-05-14T14:01:55;4.63;;;4.43;;
46266;SDS011;31998;48.798;15.066;2023-05-14T14:04:21;5.07;;;4.67;;
46266;SDS011;31998;48.798;15.066;2023-05-14T14:06:46;5.37;;;5.07;;
46266;SDS011;31998;48.798;15.066;2023-05-14T14:09:11;4.93;;;4.73;;
46266;SDS011;31998;48.798;15.066;2023-05-14T14:11:37;4.23;;;4.03;;
46266;SDS011;31998;48.798;15.066;2023-05-14T14:14:03;5.33;;;5.03;;
46266;SDS011;31998;48.798;15.066;2023-05-14T14:16:28;5.67;;;5.37;;
46266;SDS011;31998;48.798;15.066;2023-05-14T14:18:53;6.10;;;5.53;;